createdAt,value
2023-04-01T00:00:45.622Z,6.40
2023-04-01T00:03:50.925Z,6.50
2023-04-01T00:06:56.066Z,6.20
2023-04-01T00:10:00.966Z,5.96
2023-04-01T00:13:05.635Z,5.96
2023-04-01T00:16:20.308Z,5.69
2023-04-01T00:19:26.017Z,5.52
2023-04-01T00:22:30.515Z,5.77
2023-04-01T00:25:35.342Z,5.83
2023-04-01T00:28:40.986Z,5.48
2023-04-01T00:31:45.823Z,5.75
2023-04-01T00:34:54.000Z,5.90
2023-04-01T00:37:59.833Z,5.89
2023-04-01T00:41:04.512Z,6.00
2023-04-01T00:44:19.562Z,5.86
2023-04-01T00:47:27.051Z,5.69
2023-04-01T00:50:33.331Z,5.80
2023-04-01T00:53:42.815Z,5.75
2023-04-01T00:57:16.349Z,5.94
2023-04-01T01:00:22.354Z,5.90
2023-04-01T01:03:27.207Z,6.00
2023-04-01T01:06:47.131Z,5.79
2023-04-01T01:10:02.693Z,5.74
2023-04-01T01:13:16.472Z,5.92
2023-04-01T01:16:30.558Z,5.92
2023-04-01T01:20:18.970Z,5.89
2023-04-01T01:23:55.945Z,5.91
2023-04-01T01:27:00.408Z,5.83
2023-04-01T01:30:43.991Z,5.89
2023-04-01T01:33:52.224Z,5.81
2023-04-01T01:37:01.956Z,5.86
2023-04-01T01:40:10.755Z,5.95
2023-04-01T01:43:21.505Z,5.65
2023-04-01T01:46:29.234Z,5.83
2023-04-01T01:49:36.625Z,5.77
2023-04-01T01:52:41.427Z,6.03
2023-04-01T01:55:51.309Z,5.83
2023-04-01T01:59:09.916Z,5.77
2023-04-01T02:02:15.857Z,5.91
2023-04-01T02:05:26.727Z,5.83
2023-04-01T02:08:41.245Z,5.68
2023-04-01T02:11:53.533Z,5.76
2023-04-01T02:15:00.712Z,5.82
2023-04-01T02:18:05.996Z,5.92
2023-04-01T02:21:11.622Z,5.93
2023-04-01T02:24:17.079Z,5.82
2023-04-01T02:27:22.344Z,5.94
2023-04-01T02:30:30.167Z,5.89
2023-04-01T02:33:34.950Z,5.94
2023-04-01T02:36:39.686Z,5.74
2023-04-01T02:39:44.734Z,5.88
2023-04-01T02:42:49.427Z,5.91
2023-04-01T02:45:54.900Z,5.89
2023-04-01T02:48:59.423Z,5.87
2023-04-01T02:52:04.350Z,6.03
2023-04-01T02:55:09.487Z,5.83
2023-04-01T02:58:14.112Z,5.50
2023-04-01T03:01:18.685Z,5.85
2023-04-01T03:04:23.308Z,5.84
2023-04-01T03:07:27.882Z,5.58
2023-04-01T03:10:32.610Z,5.63
2023-04-01T03:13:37.542Z,5.74
2023-04-01T03:16:42.251Z,5.75
2023-04-01T03:19:46.935Z,5.71
2023-04-01T03:22:52.115Z,5.99
2023-04-01T03:25:56.601Z,5.61
2023-04-01T03:29:01.298Z,5.84
2023-04-01T03:32:06.120Z,5.65
2023-04-01T03:35:11.404Z,5.84
2023-04-01T03:38:16.689Z,5.95
2023-04-01T03:41:21.728Z,5.84
2023-04-01T03:44:26.223Z,5.66
2023-04-01T03:47:32.210Z,5.85
2023-04-01T03:50:36.857Z,5.84
2023-04-01T03:53:41.838Z,5.91
2023-04-01T03:56:46.717Z,5.81
2023-04-01T03:59:51.366Z,5.75
2023-04-01T04:02:57.564Z,5.58
2023-04-01T04:06:12.315Z,5.97
2023-04-01T04:09:17.154Z,5.88
2023-04-01T04:12:21.749Z,5.82
2023-04-01T04:15:26.343Z,5.68
2023-04-01T04:18:30.934Z,5.70
2023-04-01T04:21:35.653Z,5.69
2023-04-01T04:24:40.177Z,5.85
2023-04-01T04:27:47.661Z,5.82
2023-04-01T04:30:54.332Z,5.78
2023-04-01T04:34:00.356Z,5.64
2023-04-01T04:37:05.233Z,5.69
2023-04-01T04:40:13.610Z,5.81
2023-04-01T04:43:20.106Z,5.82
2023-04-01T04:46:25.377Z,5.74
2023-04-01T04:49:36.226Z,6.00
2023-04-01T04:52:44.697Z,5.82
2023-04-01T04:55:50.607Z,5.57
2023-04-01T04:59:17.077Z,5.88
2023-04-01T05:02:28.579Z,5.84
2023-04-01T05:05:35.143Z,5.85
2023-04-01T05:08:43.712Z,5.91
2023-04-01T05:11:48.426Z,5.73
2023-04-01T05:14:53.021Z,5.79
2023-04-01T05:17:57.792Z,5.60
2023-04-01T05:21:02.709Z,5.52
2023-04-01T05:24:10.867Z,5.35
2023-04-01T05:27:16.404Z,5.47
2023-04-01T05:30:22.303Z,5.67
2023-04-01T05:33:53.004Z,5.58
2023-04-01T05:36:57.623Z,5.61
2023-04-01T05:40:03.169Z,5.86
2023-04-01T05:43:07.960Z,5.59
2023-04-01T05:46:13.023Z,5.85
2023-04-01T05:49:28.817Z,5.77
2023-04-01T05:52:33.924Z,5.53
2023-04-01T05:55:38.463Z,5.56
2023-04-01T05:58:43.371Z,5.72
2023-04-01T06:01:48.201Z,5.74
2023-04-01T06:05:12.165Z,6.04
2023-04-01T06:08:20.395Z,5.90
2023-04-01T06:11:53.222Z,5.85
2023-04-01T06:15:21.370Z,5.66
2023-04-01T06:18:44.866Z,5.90
2023-04-01T06:22:32.962Z,5.93
2023-04-01T06:25:48.181Z,5.87
2023-04-01T06:29:06.192Z,5.77
2023-04-01T06:32:33.072Z,5.77
2023-04-01T06:36:16.377Z,5.91
2023-04-01T06:39:32.956Z,5.89
2023-04-01T06:43:13.762Z,5.92
2023-04-01T06:47:05.760Z,6.12
2023-04-01T06:50:46.559Z,5.83
2023-04-01T06:54:31.111Z,6.07
2023-04-01T06:57:51.345Z,5.91
2023-04-01T07:01:00.377Z,5.98
2023-04-01T07:04:21.703Z,6.07
2023-04-01T07:07:50.024Z,6.09
2023-04-01T07:10:57.855Z,6.26
2023-04-01T07:14:29.357Z,6.52
2023-04-01T07:17:38.026Z,6.59
2023-04-01T07:20:43.280Z,6.57
2023-04-01T07:23:49.469Z,6.67
2023-04-01T07:27:19.897Z,6.73
2023-04-01T07:30:28.906Z,6.85
2023-04-01T07:34:15.829Z,6.52
2023-04-01T07:37:45.286Z,7.02
2023-04-01T07:41:33.569Z,7.05
2023-04-01T07:44:56.237Z,7.39
2023-04-01T07:48:22.552Z,7.59
2023-04-01T07:51:41.574Z,7.48
2023-04-01T07:55:04.364Z,7.25
2023-04-01T07:58:36.975Z,7.05
2023-04-01T08:02:09.553Z,7.44
2023-04-01T08:05:28.908Z,7.24
2023-04-01T08:08:49.310Z,7.54
2023-04-01T08:13:03.799Z,7.70
2023-04-01T08:16:54.715Z,7.35
2023-04-01T08:20:33.589Z,7.80
2023-04-01T08:23:45.729Z,7.82
2023-04-01T08:26:56.543Z,7.35
2023-04-01T08:30:10.332Z,7.51
2023-04-01T08:33:27.082Z,7.61
2023-04-01T08:36:45.983Z,7.72
2023-04-01T08:40:18.755Z,7.32
2023-04-01T08:43:48.618Z,7.27
2023-04-01T08:47:24.256Z,7.34
2023-04-01T08:50:58.102Z,7.90
2023-04-01T08:54:11.933Z,8.06
2023-04-01T08:57:33.274Z,8.33
2023-04-01T09:01:17.981Z,8.36
2023-04-01T09:05:03.105Z,7.56
2023-04-01T09:08:29.070Z,8.06
2023-04-01T09:12:00.222Z,8.20
2023-04-01T09:15:26.570Z,7.64
2023-04-01T09:18:57.270Z,7.73
2023-04-01T09:22:16.657Z,7.45
2023-04-01T09:25:54.647Z,7.92
2023-04-01T09:29:32.272Z,8.32
2023-04-01T09:33:06.493Z,9.17
2023-04-01T09:36:41.330Z,8.98
2023-04-01T09:40:15.148Z,8.83
2023-04-01T09:43:21.528Z,9.36
2023-04-01T09:46:41.197Z,9.09
2023-04-01T09:50:15.239Z,9.03
2023-04-01T09:53:55.912Z,8.55
2023-04-01T09:57:06.497Z,8.63
2023-04-01T10:00:40.801Z,8.65
2023-04-01T10:03:52.695Z,8.67
2023-04-01T10:07:34.645Z,9.00
2023-04-01T10:10:53.121Z,8.87
2023-04-01T10:14:25.928Z,9.10
2023-04-01T10:17:55.914Z,9.05
2023-04-01T10:21:28.866Z,8.85
2023-04-01T10:25:04.255Z,8.81
2023-04-01T10:28:36.771Z,9.20
2023-04-01T10:32:24.068Z,8.94
2023-04-01T10:35:52.898Z,8.89
2023-04-01T10:39:15.143Z,8.90
2023-04-01T10:42:50.223Z,9.06
2023-04-01T10:46:45.371Z,9.45
2023-04-01T10:50:17.300Z,10.05
2023-04-01T10:53:40.178Z,10.87
2023-04-01T10:56:51.336Z,10.76
2023-04-01T11:00:47.021Z,10.69
2023-04-01T11:04:44.195Z,10.97
2023-04-01T11:08:30.004Z,10.97
2023-04-01T11:12:04.815Z,10.33
2023-04-01T11:15:40.632Z,10.12
2023-04-01T11:19:31.104Z,9.77
2023-04-01T11:23:01.762Z,10.01
2023-04-01T11:26:13.630Z,9.22
2023-04-01T11:29:59.826Z,9.25
2023-04-01T11:33:21.039Z,9.15
2023-04-01T11:36:39.108Z,9.25
2023-04-01T11:40:04.985Z,8.25
2023-04-01T11:43:38.247Z,8.33
2023-04-01T11:47:40.061Z,8.22
2023-04-01T11:51:22.463Z,8.69
2023-04-01T11:54:51.862Z,8.40
2023-04-01T11:58:03.375Z,8.53
2023-04-01T12:01:35.877Z,8.15
2023-04-01T12:05:08.740Z,8.92
2023-04-01T12:08:46.551Z,9.60
2023-04-01T12:12:22.002Z,9.28
2023-04-01T12:15:59.481Z,9.27
2023-04-01T12:19:42.351Z,8.87
2023-04-01T12:23:21.259Z,8.77
2023-04-01T12:26:28.374Z,8.71
2023-04-01T12:29:54.656Z,9.22
2023-04-01T12:33:44.219Z,9.18
2023-04-01T12:37:18.074Z,8.87
2023-04-01T12:40:29.688Z,8.70
2023-04-01T12:43:45.897Z,8.82
2023-04-01T12:47:30.762Z,8.87
2023-04-01T12:50:50.760Z,8.57
2023-04-01T12:54:10.521Z,8.71
2023-04-01T12:57:48.901Z,8.46
2023-04-01T13:01:20.652Z,8.58
2023-04-01T13:04:41.823Z,8.69
2023-04-01T13:08:18.699Z,8.62
2023-04-01T13:11:56.171Z,8.63
2023-04-01T13:15:25.557Z,8.33
2023-04-01T13:18:57.875Z,8.20
2023-04-01T13:22:02.452Z,8.19
2023-04-01T13:25:22.687Z,8.05
2023-04-01T13:28:45.798Z,8.15
2023-04-01T13:32:03.387Z,8.30
2023-04-01T13:35:15.094Z,8.42
2023-04-01T13:38:55.032Z,8.77
2023-04-01T13:42:09.693Z,8.76
2023-04-01T13:45:32.004Z,8.26
2023-04-01T13:49:00.112Z,7.84
2023-04-01T13:52:25.376Z,7.23
2023-04-01T13:55:47.858Z,7.20
2023-04-01T13:59:32.706Z,7.11
2023-04-01T14:02:47.873Z,7.17
2023-04-01T14:06:24.164Z,7.01
2023-04-01T14:10:05.318Z,7.23
2023-04-01T14:13:24.138Z,7.04
2023-04-01T14:16:29.017Z,6.98
2023-04-01T14:19:45.736Z,6.97
2023-04-01T14:22:57.827Z,7.10
2023-04-01T14:26:05.347Z,7.29
2023-04-01T14:29:18.586Z,7.63
2023-04-01T14:32:47.743Z,7.39
2023-04-01T14:36:10.975Z,7.25
2023-04-01T14:39:48.595Z,7.17
2023-04-01T14:43:29.510Z,6.84
2023-04-01T14:47:04.341Z,6.94
2023-04-01T14:50:18.323Z,7.31
2023-04-01T14:53:25.841Z,7.29
2023-04-01T14:57:02.660Z,7.50
2023-04-01T15:00:10.236Z,7.20
2023-04-01T15:03:23.675Z,7.22
2023-04-01T15:06:53.805Z,6.78
2023-04-01T15:10:01.361Z,6.56
2023-04-01T15:13:17.940Z,6.22
2023-04-01T15:16:47.050Z,6.29
2023-04-01T15:20:00.584Z,6.23
2023-04-01T15:23:26.528Z,6.17
2023-04-01T15:26:48.734Z,5.90
2023-04-01T15:30:20.346Z,5.81
2023-04-01T15:33:30.388Z,5.98
2023-04-01T15:36:59.715Z,6.12
2023-04-01T15:40:21.692Z,6.10
2023-04-01T15:43:49.922Z,6.22
2023-04-01T15:46:57.972Z,6.10
2023-04-01T15:50:11.470Z,6.08
2023-04-01T15:53:29.656Z,5.85
2023-04-01T15:57:11.264Z,6.20
2023-04-01T16:00:30.841Z,6.26
2023-04-01T16:03:56.707Z,5.97
2023-04-01T16:07:29.574Z,6.10
2023-04-01T16:11:05.989Z,5.73
2023-04-01T16:14:22.838Z,5.97
2023-04-01T16:17:55.243Z,5.91
2023-04-01T16:21:07.903Z,6.08
2023-04-01T16:24:23.326Z,5.93
2023-04-01T16:27:42.629Z,5.80
2023-04-01T16:30:56.350Z,6.11
2023-04-01T16:34:05.758Z,6.20
2023-04-01T16:37:48.835Z,6.19
2023-04-01T16:41:01.755Z,5.99
2023-04-01T16:44:20.746Z,6.06
2023-04-01T16:47:32.762Z,6.20
2023-04-01T16:51:01.307Z,6.10
2023-04-01T16:54:15.402Z,5.80
2023-04-01T16:57:46.399Z,6.21
2023-04-01T17:00:59.746Z,6.31
2023-04-01T17:04:29.216Z,6.08
2023-04-01T17:07:50.211Z,6.03
2023-04-01T17:11:01.334Z,6.27
2023-04-01T17:14:26.641Z,6.34
2023-04-01T17:17:43.080Z,6.25
2023-04-01T17:20:55.058Z,6.02
2023-04-01T17:24:30.654Z,6.01
2023-04-01T17:28:11.538Z,5.84
2023-04-01T17:31:46.895Z,5.98
2023-04-01T17:35:09.426Z,5.97
2023-04-01T17:38:20.586Z,5.81
2023-04-01T17:41:33.816Z,5.89
2023-04-01T17:44:58.458Z,5.88
2023-04-01T17:48:31.490Z,5.73
2023-04-01T17:52:00.758Z,5.78
2023-04-01T17:55:34.518Z,5.91
2023-04-01T17:58:59.976Z,5.86
2023-04-01T18:02:18.054Z,5.76
2023-04-01T18:05:37.195Z,5.81
2023-04-01T18:08:44.514Z,5.91
2023-04-01T18:12:10.560Z,5.84
2023-04-01T18:15:52.212Z,5.84
2023-04-01T18:19:10.295Z,5.80
2023-04-01T18:22:21.575Z,6.04
2023-04-01T18:25:49.402Z,5.85
2023-04-01T18:29:00.923Z,5.73
2023-04-01T18:32:17.140Z,5.64
2023-04-01T18:35:45.969Z,5.80
2023-04-01T18:38:58.342Z,5.90
2023-04-01T18:42:22.833Z,5.82
2023-04-01T18:45:27.401Z,6.00
2023-04-01T18:48:43.681Z,5.89
2023-04-01T18:51:58.202Z,5.90
2023-04-01T18:55:05.845Z,5.72
2023-04-01T18:58:28.166Z,5.98
2023-04-01T19:01:37.947Z,5.90
2023-04-01T19:05:02.245Z,5.78
2023-04-01T19:08:20.247Z,5.97
2023-04-01T19:11:37.309Z,5.56
2023-04-01T19:15:11.405Z,5.82
2023-04-01T19:18:46.785Z,5.90
2023-04-01T19:22:00.422Z,6.01
2023-04-01T19:25:34.472Z,5.91
2023-04-01T19:29:14.342Z,6.10
2023-04-01T19:32:40.722Z,6.13
2023-04-01T19:36:00.149Z,5.87
2023-04-01T19:39:22.658Z,6.23
2023-04-01T19:42:27.227Z,6.10
2023-04-01T19:45:50.516Z,6.28
2023-04-01T19:48:55.128Z,6.10
2023-04-01T19:52:11.848Z,6.10
2023-04-01T19:55:31.680Z,6.32
2023-04-01T19:58:51.716Z,5.81
2023-04-01T20:02:24.812Z,6.05
2023-04-01T20:05:45.210Z,5.93
2023-04-01T20:09:18.417Z,6.07
2023-04-01T20:12:48.570Z,5.76
2023-04-01T20:16:07.041Z,5.83
2023-04-01T20:19:12.627Z,5.65
2023-04-01T20:22:29.535Z,5.79
2023-04-01T20:25:47.642Z,5.72
2023-04-01T20:29:28.242Z,5.65
2023-04-01T20:32:49.810Z,5.90
2023-04-01T20:36:23.207Z,5.90
2023-04-01T20:39:46.777Z,5.76
2023-04-01T20:43:18.334Z,5.77
2023-04-01T20:47:00.537Z,5.79
2023-04-01T20:50:33.334Z,5.78
2023-04-01T20:53:40.630Z,5.84
2023-04-01T20:57:05.525Z,5.76
2023-04-01T21:00:37.356Z,5.86
2023-04-01T21:03:49.363Z,5.76
2023-04-01T21:07:18.254Z,5.81
2023-04-01T21:10:50.807Z,5.74
2023-04-01T21:14:39.871Z,5.92
2023-04-01T21:18:01.893Z,5.84
2023-04-01T21:21:40.638Z,5.84
2023-04-01T21:25:03.519Z,5.78
2023-04-01T21:28:30.224Z,5.69
2023-04-01T21:32:05.421Z,5.89
2023-04-01T21:35:28.806Z,5.51
2023-04-01T21:38:48.955Z,5.70
2023-04-01T21:41:53.420Z,5.78
2023-04-01T21:45:16.744Z,5.78
2023-04-01T21:48:42.362Z,5.78
2023-04-01T21:52:01.217Z,5.72
2023-04-01T21:55:24.371Z,5.58
2023-04-01T21:58:56.213Z,5.29
2023-04-01T22:02:15.868Z,5.58
2023-04-01T22:05:28.040Z,5.28
2023-04-01T22:08:53.699Z,4.95
2023-04-01T22:12:38.409Z,5.24
2023-04-01T22:16:16.385Z,5.28
2023-04-01T22:19:31.140Z,5.12
2023-04-01T22:22:49.670Z,5.13
2023-04-01T22:26:06.319Z,5.34
2023-04-01T22:29:22.684Z,5.28
2023-04-01T22:32:43.283Z,5.05
2023-04-01T22:36:06.934Z,5.21
2023-04-01T22:39:20.262Z,5.50
2023-04-01T22:42:41.013Z,5.06
2023-04-01T22:46:08.794Z,5.10
2023-04-01T22:49:23.663Z,5.43
2023-04-01T22:52:45.642Z,5.46
2023-04-01T22:55:53.854Z,5.30
2023-04-01T22:59:11.148Z,5.33
2023-04-01T23:02:22.733Z,5.43
2023-04-01T23:05:29.668Z,5.29
2023-04-01T23:08:45.175Z,5.25
2023-04-01T23:11:56.310Z,5.12
2023-04-01T23:15:02.598Z,5.26
2023-04-01T23:18:19.588Z,5.34
2023-04-01T23:21:36.110Z,5.30
2023-04-01T23:25:18.774Z,5.28
2023-04-01T23:28:44.196Z,5.38
2023-04-01T23:32:01.084Z,5.48
2023-04-01T23:35:17.258Z,5.54
2023-04-01T23:38:25.984Z,5.39
2023-04-01T23:41:32.650Z,5.43
2023-04-01T23:44:37.905Z,5.49
2023-04-01T23:47:42.761Z,5.32
2023-04-01T23:50:47.448Z,5.29
2023-04-01T23:54:04.169Z,5.45
2023-04-01T23:57:19.042Z,5.60
